Time;durP1;ratioP1;P1;durP2;ratioP2;P2;SDS_P1;SDS_P2;PMS_P1;PMS_P2;Temp;Humidity;BMP_temperature;BMP_pressure;BME280_temperature;BME280_humidity;BME280_pressure;Samples;Min_cycle;Max_cycle;Signal;HPM_P1;HPM_P2
2023/04/18 00:00:30;;;;;;;;;;;;;;;12.38;97.84;99308.69;4991034;28;19914;-91
2023/04/18 00:02:55;;;;;;;;;;;;;;;12.34;98.60;99314.06;4989535;28;20407;-91
2023/04/18 00:05:20;;;;;;;;;;;;;;;12.31;98.24;99315.91;4991117;28;19924;-92
2023/04/18 00:07:46;;;;;;;;;;;;;;;12.03;100.00;99314.03;4991429;28;19913;-91
2023/04/18 00:10:11;;;;;;;;;;;;;;;12.06;100.00;99321.03;4990888;28;19913;-91
2023/04/18 00:12:36;;;;;;;;;;;;;;;11.75;100.00;99317.38;4990032;28;20033;-91
2023/04/18 00:15:03;;;;;;;;;;;;;;;11.72;100.00;99321.88;4990498;28;20093;-91
2023/04/18 00:17:29;;;;;;;;;;;;;;;11.61;100.00;99325.66;4983250;28;20024;-91
2023/04/18 00:19:55;;;;;;;;;;;;;;;11.68;100.00;99328.13;4954343;28;19964;-91
2023/04/18 00:22:21;;;;;;;;;;;;;;;11.65;100.00;99334.38;4982715;28;20011;-92
2023/04/18 00:24:50;;;;;;;;;;;;;;;11.50;100.00;99338.28;4991338;28;20027;-91
2023/04/18 00:27:16;;;;;;;;;;;;;;;11.30;100.00;99330.81;4973668;28;20302;-90
2023/04/18 00:29:42;;;;;;;;;;;;;;;11.38;100.00;99331.50;4990576;28;19922;-91
2023/04/18 00:32:07;;;;;;;;;;;;;;;11.44;100.00;99330.50;4973227;28;20291;-90
2023/04/18 00:34:32;;;;;;;;;;;;;;;11.43;100.00;99328.75;4990257;28;19918;-90
2023/04/18 00:36:58;;;;;;;;;;;;;;;11.38;100.00;99328.00;4990706;28;19968;-89
2023/04/18 00:39:23;;;;;;;;;;;;;;;11.24;100.00;99323.91;4989735;28;19924;-90
2023/04/18 00:41:48;;;;;;;;;;;;;;;11.19;100.00;99330.22;4989701;28;19922;-90
2023/04/18 00:44:14;;;;;;;;;;;;;;;11.30;100.00;99322.91;4990735;28;19913;-90
2023/04/18 00:46:39;;;;;;;;;;;;;;;11.16;100.00;99319.72;4987703;28;20012;-89
2023/04/18 00:49:05;;;;;;;;;;;;;;;10.98;100.00;99323.66;4991168;28;19914;-90
2023/04/18 00:51:31;;;;;;;;;;;;;;;11.11;100.00;99317.19;4990413;28;19914;-90
2023/04/18 00:53:57;;;;;;;;;;;;;;;11.14;100.00;99303.94;4992882;28;20008;-90
2023/04/18 00:56:22;;;;;;;;;;;;;;;11.09;100.00;99296.13;4993854;28;19964;-90
2023/04/18 00:58:48;;;;;;;;;;;;;;;11.17;100.00;99309.13;4994566;28;19914;-89
2023/04/18 01:01:13;;;;;;;;;;;;;;;11.27;100.00;99307.13;4994508;28;19980;-90
2023/04/18 01:03:39;;;;;;;;;;;;;;;11.20;100.00;99306.44;4994523;28;20392;-89
2023/04/18 01:06:05;;;;;;;;;;;;;;;11.25;100.00;99306.31;4994436;28;19914;-90
2023/04/18 01:08:30;;;;;;;;;;;;;;;11.08;100.00;99312.00;4994013;28;19936;-89
2023/04/18 01:10:55;;;;;;;;;;;;;;;11.32;100.00;99314.94;4993928;28;19937;-90
2023/04/18 01:13:21;;;;;;;;;;;;;;;11.16;100.00;99309.19;4992269;28;19921;-92
2023/04/18 01:15:47;;;;;;;;;;;;;;;11.11;100.00;99315.41;4992107;28;20431;-90
2023/04/18 01:18:15;;;;;;;;;;;;;;;11.14;100.00;99314.50;4993893;28;19937;-90
2023/04/18 01:20:45;;;;;;;;;;;;;;;11.21;100.00;99312.56;4994061;28;19918;-90
2023/04/18 01:23:10;;;;;;;;;;;;;;;11.28;100.00;99309.75;4993855;28;20376;-90
2023/04/18 01:25:36;;;;;;;;;;;;;;;11.31;100.00;99310.56;4992356;28;19941;-90
2023/04/18 01:28:03;;;;;;;;;;;;;;;11.16;100.00;99306.53;4992366;28;19940;-89
2023/04/18 01:30:28;;;;;;;;;;;;;;;11.35;100.00;99313.09;4993320;28;19913;-89
2023/04/18 01:32:54;;;;;;;;;;;;;;;11.47;100.00;99312.78;4975626;28;19929;-90
2023/04/18 01:35:19;;;;;;;;;;;;;;;11.24;100.00;99317.78;4988393;28;20009;-90
2023/04/18 01:37:45;;;;;;;;;;;;;;;11.35;100.00;99314.88;4992926;28;19953;-89
2023/04/18 01:40:10;;;;;;;;;;;;;;;11.37;100.00;99315.69;4993192;28;19922;-89
2023/04/18 01:42:35;;;;;;;;;;;;;;;11.54;100.00;99317.91;4993336;28;19913;-89
2023/04/18 01:45:01;;;;;;;;;;;;;;;11.45;100.00;99316.41;4994185;28;20487;-90
2023/04/18 01:47:26;;;;;;;;;;;;;;;11.53;100.00;99317.06;4992778;28;19914;-91
2023/04/18 01:49:52;;;;;;;;;;;;;;;11.45;100.00;99313.75;4993917;28;19918;-91
2023/04/18 01:52:17;;;;;;;;;;;;;;;11.26;100.00;99314.19;4993126;28;20355;-89
2023/04/18 01:54:43;;;;;;;;;;;;;;;11.05;100.00;99312.91;4993916;28;19924;-91
2023/04/18 01:57:08;;;;;;;;;;;;;;;11.14;100.00;99313.59;4993824;28;19914;-90
2023/04/18 01:59:33;;;;;;;;;;;;;;;11.08;100.00;99317.28;4993300;28;19952;-88
2023/04/18 02:01:59;;;;;;;;;;;;;;;10.93;100.00;99316.69;4992846;28;19979;-88
2023/04/18 02:04:25;;;;;;;;;;;;;;;10.80;100.00;99323.16;4993025;28;19914;-89
2023/04/18 02:06:50;;;;;;;;;;;;;;;10.87;100.00;99319.47;4992946;28;19918;-89
2023/04/18 02:09:16;;;;;;;;;;;;;;;10.90;100.00;99332.59;4992402;28;20366;-90
2023/04/18 02:11:41;;;;;;;;;;;;;;;10.78;100.00;99329.38;4992383;28;20021;-89
2023/04/18 02:14:07;;;;;;;;;;;;;;;10.97;100.00;99324.53;4995454;28;20019;-88
2023/04/18 02:16:33;;;;;;;;;;;;;;;10.91;100.00;99328.22;4994260;28;19914;-88
2023/04/18 02:18:59;;;;;;;;;;;;;;;10.95;100.00;99332.50;4994338;28;20012;-89
2023/04/18 02:21:24;;;;;;;;;;;;;;;10.99;100.00;99328.91;4995692;28;19952;-90
2023/04/18 02:23:49;;;;;;;;;;;;;;;10.91;100.00;99328.22;4993531;28;19925;-89
2023/04/18 02:26:15;;;;;;;;;;;;;;;11.04;100.00;99324.38;4993119;28;19925;-88
2023/04/18 02:28:40;;;;;;;;;;;;;;;10.87;100.00;99318.63;4991320;28;19921;-89
2023/04/18 02:31:06;;;;;;;;;;;;;;;10.79;100.00;99323.19;4991295;28;19914;-90
2023/04/18 02:33:31;;;;;;;;;;;;;;;10.84;100.00;99326.59;4985519;28;19918;-90
2023/04/18 02:35:56;;;;;;;;;;;;;;;10.81;100.00;99330.16;4982727;28;20316;-91
2023/04/18 02:38:22;;;;;;;;;;;;;;;10.78;100.00;99330.22;4992461;28;19945;-90
2023/04/18 02:40:47;;;;;;;;;;;;;;;10.76;100.00;99332.03;4992689;28;19913;-89
2023/04/18 02:43:12;;;;;;;;;;;;;;;10.75;100.00;99336.47;4992750;28;19968;-91
2023/04/18 02:45:38;;;;;;;;;;;;;;;10.65;100.00;99328.78;4991660;28;20012;-90
2023/04/18 02:48:03;;;;;;;;;;;;;;;10.54;100.00;99336.91;4992955;28;19918;-88
2023/04/18 02:50:29;;;;;;;;;;;;;;;10.36;100.00;99333.75;4992015;28;19924;-90
2023/04/18 02:52:54;;;;;;;;;;;;;;;10.40;100.00;99339.81;4992518;28;20419;-89
2023/04/18 02:55:21;;;;;;;;;;;;;;;10.53;100.00;99343.97;4991811;28;19924;-91
2023/04/18 02:57:46;;;;;;;;;;;;;;;10.61;100.00;99340.28;4991125;28;19917;-93
2023/04/18 03:00:17;;;;;;;;;;;;;;;10.57;100.00;99337.69;4990164;28;19913;-93
2023/04/18 03:02:42;;;;;;;;;;;;;;;10.69;100.00;99338.34;4973805;28;19914;-94
2023/04/18 03:05:08;;;;;;;;;;;;;;;10.75;100.00;99335.56;4990224;28;19913;-91
2023/04/18 03:07:36;;;;;;;;;;;;;;;10.79;100.00;99334.59;4991453;28;19920;-95
2023/04/18 03:10:02;;;;;;;;;;;;;;;10.69;100.00;99331.31;4991666;28;19914;-92
2023/04/18 03:12:27;;;;;;;;;;;;;;;10.87;100.00;99335.31;4990019;28;19948;-92
2023/04/18 03:14:53;;;;;;;;;;;;;;;10.86;100.00;99330.06;4990906;28;20288;-92
2023/04/18 03:17:18;;;;;;;;;;;;;;;10.82;100.00;99333.69;4989912;28;19930;-91
2023/04/18 03:19:45;;;;;;;;;;;;;;;10.99;100.00;99338.59;4990352;28;20313;-93
2023/04/18 03:22:10;;;;;;;;;;;;;;;10.91;100.00;99336.13;4990886;28;19956;-93
2023/04/18 03:24:36;;;;;;;;;;;;;;;11.08;100.00;99346.31;4991105;28;19953;-92
2023/04/18 03:27:01;;;;;;;;;;;;;;;11.04;100.00;99344.63;4986627;28;19914;-92
2023/04/18 03:29:26;;;;;;;;;;;;;;;10.78;100.00;99340.78;4991219;28;19920;-92
2023/04/18 03:31:52;;;;;;;;;;;;;;;10.70;100.00;99338.31;4991555;28;20393;-92
2023/04/18 03:34:17;;;;;;;;;;;;;;;10.68;100.00;99344.53;4989463;28;19941;-90
2023/04/18 03:36:43;;;;;;;;;;;;;;;10.59;100.00;99353.50;4989322;28;20249;-92
2023/04/18 03:39:08;;;;;;;;;;;;;;;10.64;100.00;99346.34;4990707;28;20004;-92
2023/04/18 03:41:33;;;;;;;;;;;;;;;10.73;100.00;99353.22;4991220;28;19917;-92
2023/04/18 03:43:59;;;;;;;;;;;;;;;10.64;100.00;99356.91;4990478;28;19918;-93
2023/04/18 03:46:24;;;;;;;;;;;;;;;10.54;100.00;99358.00;4991599;28;19925;-93
2023/04/18 03:48:49;;;;;;;;;;;;;;;10.55;100.00;99360.63;4990101;28;19950;-93
2023/04/18 03:51:16;;;;;;;;;;;;;;;10.56;100.00;99357.06;4990187;28;19914;-95
2023/04/18 03:53:41;;;;;;;;;;;;;;;10.71;100.00;99360.31;4990199;28;19917;-90
2023/04/18 03:56:07;;;;;;;;;;;;;;;10.80;100.00;99357.47;4990513;28;19924;-90
2023/04/18 03:58:32;;;;;;;;;;;;;;;10.69;100.00;99365.59;4991136;28;19914;-91
2023/04/18 04:00:59;;;;;;;;;;;;;;;10.48;100.00;99359.00;4989572;28;20449;-88
2023/04/18 04:03:26;;;;;;;;;;;;;;;10.80;100.00;99362.75;4991156;28;19971;-88
2023/04/18 04:05:52;;;;;;;;;;;;;;;10.95;100.00;99371.22;4989987;28;19970;-89
2023/04/18 04:08:17;;;;;;;;;;;;;;;11.19;100.00;99369.81;4990353;28;19972;-93
2023/04/18 04:10:43;;;;;;;;;;;;;;;11.43;100.00;99371.91;4988211;28;20400;-92
2023/04/18 04:13:08;;;;;;;;;;;;;;;11.22;100.00;99375.88;4977268;28;19918;-90
2023/04/18 04:15:35;;;;;;;;;;;;;;;11.09;100.00;99374.41;4979016;28;19933;-92
2023/04/18 04:18:00;;;;;;;;;;;;;;;10.89;100.00;99386.28;4980598;28;19961;-88
2023/04/18 04:20:26;;;;;;;;;;;;;;;10.86;100.00;99381.09;4982149;28;20052;-90
2023/04/18 04:22:52;;;;;;;;;;;;;;;11.06;100.00;99387.69;4989652;28;19972;-90
2023/04/18 04:25:18;;;;;;;;;;;;;;;11.31;100.00;99382.75;4987466;28;19917;-89
2023/04/18 04:27:43;;;;;;;;;;;;;;;11.21;100.00;99389.13;4986507;28;20373;-90
2023/04/18 04:30:09;;;;;;;;;;;;;;;11.32;100.00;99380.97;4984933;28;19960;-88
2023/04/18 04:32:34;;;;;;;;;;;;;;;11.19;100.00;99383.88;4993717;28;19917;-92
2023/04/18 04:35:00;;;;;;;;;;;;;;;11.14;100.00;99392.78;4994473;28;20028;-88
2023/04/18 04:37:26;;;;;;;;;;;;;;;11.03;100.00;99393.03;4987777;28;19972;-90
2023/04/18 04:39:51;;;;;;;;;;;;;;;11.18;100.00;99399.75;4993126;28;19926;-89
2023/04/18 04:42:18;;;;;;;;;;;;;;;10.96;100.00;99397.56;4986810;28;20295;-90
2023/04/18 04:44:43;;;;;;;;;;;;;;;10.97;100.00;99399.31;4986851;28;19918;-88
2023/04/18 04:47:08;;;;;;;;;;;;;;;11.04;100.00;99392.13;4983492;28;19936;-85
2023/04/18 04:49:34;;;;;;;;;;;;;;;11.22;100.00;99404.94;4981929;28;20346;-89
2023/04/18 04:52:01;;;;;;;;;;;;;;;11.01;100.00;99400.97;4977917;28;19926;-87
2023/04/18 04:54:28;;;;;;;;;;;;;;;11.09;100.00;99401.69;4981765;28;19929;-86
2023/04/18 04:56:53;;;;;;;;;;;;;;;11.07;100.00;99403.47;4981595;28;20494;-86
2023/04/18 04:59:19;;;;;;;;;;;;;;;10.90;100.00;99406.47;4987659;28;19922;-88
2023/04/18 05:01:45;;;;;;;;;;;;;;;11.21;100.00;99403.19;4986226;28;19925;-87
2023/04/18 05:04:11;;;;;;;;;;;;;;;11.21;100.00;99402.31;4986416;28;19917;-88
2023/04/18 05:06:36;;;;;;;;;;;;;;;11.07;100.00;99403.47;4988730;28;19933;-87
2023/04/18 05:09:02;;;;;;;;;;;;;;;11.17;100.00;99412.09;4988668;28;19917;-85
2023/04/18 05:11:27;;;;;;;;;;;;;;;11.29;100.00;99409.19;4986994;28;20292;-88
2023/04/18 05:13:52;;;;;;;;;;;;;;;11.43;100.00;99415.91;4976919;28;20001;-87
2023/04/18 05:16:18;;;;;;;;;;;;;;;11.61;100.00;99418.13;5005868;28;19953;-86
2023/04/18 05:18:43;;;;;;;;;;;;;;;11.75;100.00;99414.28;4992065;28;19921;-89
2023/04/18 05:21:09;;;;;;;;;;;;;;;11.76;99.31;99405.47;4990010;28;19918;-87
2023/04/18 05:23:35;;;;;;;;;;;;;;;11.64;99.47;99423.31;4987150;28;19921;-86
2023/04/18 05:26:01;;;;;;;;;;;;;;;11.39;100.00;99411.63;4987658;28;19918;-87
2023/04/18 05:28:27;;;;;;;;;;;;;;;11.33;100.00;99412.63;4988130;28;19925;-87
2023/04/18 05:30:59;;;;;;;;;;;;;;;11.43;100.00;99421.19;4989639;28;19984;-87
2023/04/18 05:33:25;;;;;;;;;;;;;;;11.65;100.00;99408.38;4974847;28;19936;-87
2023/04/18 05:35:50;;;;;;;;;;;;;;;11.79;99.79;99406.25;4979032;28;20379;-87
2023/04/18 05:38:16;;;;;;;;;;;;;;;11.94;97.85;99402.41;4989760;28;19928;-86
2023/04/18 05:40:42;;;;;;;;;;;;;;;12.00;97.67;99411.94;4990155;28;20019;-86
2023/04/18 05:43:07;;;;;;;;;;;;;;;11.97;97.09;99412.91;4992348;28;19925;-86
2023/04/18 05:45:32;;;;;;;;;;;;;;;11.85;97.18;99402.59;4984481;28;20021;-86
2023/04/18 05:47:58;;;;;;;;;;;;;;;12.08;95.67;99417.03;4989271;28;20436;-89
2023/04/18 05:50:23;;;;;;;;;;;;;;;12.03;96.03;99417.13;4987384;28;20400;-90
2023/04/18 05:52:48;;;;;;;;;;;;;;;12.24;95.56;99421.00;4986698;28;20371;-89
2023/04/18 05:55:14;;;;;;;;;;;;;;;12.28;94.70;99419.16;4987314;28;19918;-89
2023/04/18 05:57:40;;;;;;;;;;;;;;;12.06;94.29;99419.69;4980593;28;19914;-88
2023/04/18 06:00:06;;;;;;;;;;;;;;;11.80;96.61;99415.03;4980050;28;19973;-90
2023/04/18 06:02:31;;;;;;;;;;;;;;;11.75;98.38;99422.22;4992233;28;19990;-86
2023/04/18 06:04:56;;;;;;;;;;;;;;;11.73;98.08;99422.25;4986685;28;19991;-90
2023/04/18 06:07:23;;;;;;;;;;;;;;;11.97;97.19;99425.22;4990473;28;19918;-87
2023/04/18 06:09:49;;;;;;;;;;;;;;;11.84;96.90;99416.69;4981229;28;20008;-86
2023/04/18 06:12:14;;;;;;;;;;;;;;;11.96;96.05;99423.50;4990712;28;19980;-87
2023/04/18 06:14:39;;;;;;;;;;;;;;;12.14;95.81;99417.75;4989586;28;19917;-90
2023/04/18 06:17:06;;;;;;;;;;;;;;;12.23;94.88;99423.69;4992074;28;19945;-89
2023/04/18 06:19:31;;;;;;;;;;;;;;;12.08;95.24;99419.66;4990673;28;19918;-88
2023/04/18 06:21:56;;;;;;;;;;;;;;;12.02;96.21;99425.09;4981349;28;20297;-86
2023/04/18 06:24:22;;;;;;;;;;;;;;;12.07;96.42;99423.22;4974327;28;19984;-88
2023/04/18 06:26:47;;;;;;;;;;;;;;;12.23;95.14;99426.34;4982777;28;19921;-88
2023/04/18 06:29:13;;;;;;;;;;;;;;;12.41;94.36;99425.84;4973305;28;20303;-89
2023/04/18 06:31:38;;;;;;;;;;;;;;;12.44;92.47;99425.78;4983095;28;19921;-89
2023/04/18 06:34:04;;;;;;;;;;;;;;;12.47;92.53;99416.91;4971924;28;19914;-88
2023/04/18 06:36:30;;;;;;;;;;;;;;;12.48;92.62;99419.50;4980960;28;19914;-88
2023/04/18 06:38:55;;;;;;;;;;;;;;;12.44;92.97;99417.84;4973510;28;19918;-88
2023/04/18 06:41:21;;;;;;;;;;;;;;;12.34;91.87;99419.88;4986015;28;20520;-89
2023/04/18 06:43:46;;;;;;;;;;;;;;;12.58;91.13;99412.16;4992548;28;20348;-89
2023/04/18 06:46:12;;;;;;;;;;;;;;;12.88;89.71;99410.44;4985688;28;19918;-88
2023/04/18 06:48:37;;;;;;;;;;;;;;;12.88;88.00;99412.22;4971796;28;19914;-87
2023/04/18 06:51:02;;;;;;;;;;;;;;;13.06;88.98;99410.81;4982849;28;19917;-86
2023/04/18 06:53:28;;;;;;;;;;;;;;;13.33;87.44;99413.53;4973214;28;19918;-87
2023/04/18 06:55:53;;;;;;;;;;;;;;;13.29;87.49;99412.75;4981787;28;19921;-87
2023/04/18 06:58:19;;;;;;;;;;;;;;;13.36;86.81;99410.81;4975008;28;19997;-87
2023/04/18 07:00:47;;;;;;;;;;;;;;;13.38;85.06;99415.16;4980037;28;19979;-86
2023/04/18 07:03:13;;;;;;;;;;;;;;;13.60;85.74;99412.69;4975209;28;20064;-86
2023/04/18 07:05:38;;;;;;;;;;;;;;;13.61;85.23;99416.25;4979278;28;20008;-86
2023/04/18 07:08:04;;;;;;;;;;;;;;;13.76;85.11;99413.09;4976697;28;19922;-86
2023/04/18 07:10:29;;;;;;;;;;;;;;;13.64;82.67;99418.78;4977976;28;20379;-86
2023/04/18 07:12:55;;;;;;;;;;;;;;;13.95;83.13;99428.41;4976476;28;19918;-87
2023/04/18 07:15:20;;;;;;;;;;;;;;;13.98;82.83;99420.34;4971516;28;19920;-87
2023/04/18 07:17:45;;;;;;;;;;;;;;;14.32;80.10;99411.22;4971412;28;19922;-88
2023/04/18 07:20:11;;;;;;;;;;;;;;;14.35;79.84;99415.53;4971528;28;19921;-87
2023/04/18 07:22:36;;;;;;;;;;;;;;;14.71;78.40;99410.75;4971003;28;19925;-86
2023/04/18 07:25:02;;;;;;;;;;;;;;;14.86;76.18;99407.53;4971472;28;19965;-85
2023/04/18 07:27:27;;;;;;;;;;;;;;;15.36;75.46;99398.53;4977470;28;20311;-85
2023/04/18 07:29:52;;;;;;;;;;;;;;;15.66;74.24;99400.94;4971423;28;19910;-87
2023/04/18 07:32:18;;;;;;;;;;;;;;;15.45;73.61;99394.66;4970962;28;19964;-87
2023/04/18 07:34:43;;;;;;;;;;;;;;;15.78;71.81;99390.75;4971440;28;19914;-87
2023/04/18 07:37:09;;;;;;;;;;;;;;;15.88;72.36;99384.09;4970866;28;20004;-86
2023/04/18 07:39:35;;;;;;;;;;;;;;;15.84;74.03;99379.84;4988119;28;19914;-89
2023/04/18 07:42:01;;;;;;;;;;;;;;;16.58;71.53;99387.31;4991526;28;20002;-89
2023/04/18 07:44:26;;;;;;;;;;;;;;;16.86;70.66;99386.06;4991546;28;19914;-90
2023/04/18 07:46:52;;;;;;;;;;;;;;;17.05;72.34;99368.31;4991416;28;20290;-89
2023/04/18 07:49:17;;;;;;;;;;;;;;;17.22;63.84;99372.00;4991533;28;19921;-90
2023/04/18 07:51:42;;;;;;;;;;;;;;;17.08;64.33;99377.97;4980096;28;20467;-89
2023/04/18 07:54:09;;;;;;;;;;;;;;;16.42;67.24;99373.81;4955252;28;20362;-89
2023/04/18 07:56:35;;;;;;;;;;;;;;;16.89;66.99;99369.97;4972022;28;20382;-88
2023/04/18 07:59:01;;;;;;;;;;;;;;;16.82;65.87;99375.56;4971559;28;20017;-90
2023/04/18 08:01:26;;;;;;;;;;;;;;;16.58;67.86;99382.84;4972256;28;19914;-90
2023/04/18 08:03:53;;;;;;;;;;;;;;;17.00;66.61;99403.16;4970948;28;19914;-89
2023/04/18 08:06:19;;;;;;;;;;;;;;;17.07;66.59;99400.22;4971602;28;19972;-89
2023/04/18 08:08:45;;;;;;;;;;;;;;;17.23;65.15;99405.72;4972026;28;20324;-90
2023/04/18 08:11:10;;;;;;;;;;;;;;;17.07;64.13;99397.56;4971440;28;19964;-89
2023/04/18 08:13:35;;;;;;;;;;;;;;;17.11;66.10;99400.00;4971431;28;20009;-89
2023/04/18 08:16:01;;;;;;;;;;;;;;;16.53;65.51;99400.84;4971589;28;19918;-90
2023/04/18 08:18:27;;;;;;;;;;;;;;;16.39;65.32;99404.09;4971073;28;19918;-89
2023/04/18 08:20:52;;;;;;;;;;;;;;;16.60;65.51;99417.41;4971623;28;19914;-89
2023/04/18 08:23:17;;;;;;;;;;;;;;;16.70;65.72;99412.50;4969874;28;19914;-88
2023/04/18 08:25:44;;;;;;;;;;;;;;;16.64;66.26;99413.66;4973658;28;19936;-89
2023/04/18 08:28:10;;;;;;;;;;;;;;;16.79;66.03;99412.09;4991440;28;19920;-89
2023/04/18 08:30:35;;;;;;;;;;;;;;;16.82;65.99;99418.19;4990459;28;19909;-89
2023/04/18 08:33:01;;;;;;;;;;;;;;;16.67;64.55;99423.31;4973245;28;19924;-89
2023/04/18 08:35:26;;;;;;;;;;;;;;;16.54;64.18;99437.16;4990709;28;19914;-86
2023/04/18 08:37:52;;;;;;;;;;;;;;;16.44;64.25;99436.69;4990613;28;20410;-87
2023/04/18 08:40:18;;;;;;;;;;;;;;;16.24;65.25;99450.00;4990315;28;20298;-87
2023/04/18 08:42:44;;;;;;;;;;;;;;;16.14;66.99;99444.19;4990989;28;19917;-88
2023/04/18 08:45:12;;;;;;;;;;;;;;;16.22;67.96;99447.41;4990385;28;19980;-87
2023/04/18 08:47:38;;;;;;;;;;;;;;;16.33;67.98;99451.41;4990768;28;19914;-87
2023/04/18 08:50:03;;;;;;;;;;;;;;;16.05;69.33;99453.44;4989372;28;19913;-87
2023/04/18 08:52:30;;;;;;;;;;;;;;;15.93;70.47;99462.78;4989919;28;19913;-87
2023/04/18 08:54:56;;;;;;;;;;;;;;;15.78;71.00;99460.72;4989793;28;19914;-87
2023/04/18 08:57:32;;;;;;;;;;;;;;;15.82;71.27;99448.16;4989938;28;19913;-86
2023/04/18 08:59:59;;;;;;;;;;;;;;;15.94;71.42;99455.66;4990224;28;20339;-87
2023/04/18 09:02:37;;;;;;;;;;;;;;;15.81;72.40;99447.31;4987827;28;19929;-90
2023/04/18 09:05:09;;;;;;;;;;;;;;;15.65;73.13;99444.38;4970153;28;20898;-83
2023/04/18 09:07:34;;;;;;;;;;;;;;;15.52;73.41;99440.47;4989430;28;19921;-89
2023/04/18 09:10:00;;;;;;;;;;;;;;;15.47;74.64;99426.50;4992838;28;20008;-91
2023/04/18 09:12:26;;;;;;;;;;;;;;;15.30;75.47;99424.50;4990142;28;19925;-89
2023/04/18 09:14:53;;;;;;;;;;;;;;;15.26;75.44;99410.47;4991227;28;19914;-87
2023/04/18 09:17:37;;;;;;;;;;;;;;;15.21;75.55;99402.69;4992835;28;19925;-88
2023/04/18 09:20:04;;;;;;;;;;;;;;;15.07;75.80;99394.34;4992971;28;19914;-87
2023/04/18 09:23:02;;;;;;;;;;;;;;;15.00;76.17;99396.41;4993293;28;19965;-86
2023/04/18 09:25:34;;;;;;;;;;;;;;;14.96;76.28;99397.41;4932871;29;20685;-87
2023/04/18 09:28:01;;;;;;;;;;;;;;;14.86;77.02;99374.81;4933000;29;20013;-89
2023/04/18 09:30:39;;;;;;;;;;;;;;;14.22;81.11;99367.38;4933622;29;19958;-90
2023/04/18 09:33:08;;;;;;;;;;;;;;;13.50;88.96;99346.78;4944296;29;20008;-88
2023/04/18 09:35:33;;;;;;;;;;;;;;;13.01;94.47;99328.88;4952569;29;19914;-89
2023/04/18 09:38:00;;;;;;;;;;;;;;;12.47;98.78;99334.88;4945127;29;19922;-89
2023/04/18 09:40:25;;;;;;;;;;;;;;;12.54;99.53;99326.75;4934713;29;20021;-89
2023/04/18 09:42:53;;;;;;;;;;;;;;;12.71;100.00;99338.59;4931316;29;20009;-90
2023/04/18 09:45:18;;;;;;;;;;;;;;;13.12;98.69;99351.50;4935774;29;19918;-88
2023/04/18 09:47:44;;;;;;;;;;;;;;;13.28;95.82;99395.13;4943522;29;20495;-88
2023/04/18 09:50:09;;;;;;;;;;;;;;;13.40;95.12;99421.28;4940066;29;19915;-87
2023/04/18 09:52:36;;;;;;;;;;;;;;;13.06;96.55;99440.78;4932539;29;19915;-88
2023/04/18 09:55:05;;;;;;;;;;;;;;;13.30;94.89;99432.16;4933146;29;19915;-89
2023/04/18 09:57:32;;;;;;;;;;;;;;;13.60;93.45;99441.00;4932488;29;20009;-91
2023/04/18 09:59:57;;;;;;;;;;;;;;;13.19;94.38;99453.69;4919102;28;20372;-91
2023/04/18 10:02:23;;;;;;;;;;;;;;;13.05;95.55;99447.03;4973148;28;19918;-90
2023/04/18 10:04:50;;;;;;;;;;;;;;;13.23;94.42;99442.09;4973594;28;19937;-90
2023/04/18 10:07:16;;;;;;;;;;;;;;;13.50;93.03;99426.28;4973092;28;19918;-90
2023/04/18 10:09:43;;;;;;;;;;;;;;;13.80;90.15;99435.06;4973619;28;19914;-89
2023/04/18 10:12:11;;;;;;;;;;;;;;;13.78;88.97;99440.41;4972717;28;19914;-89
2023/04/18 10:14:38;;;;;;;;;;;;;;;14.00;89.42;99447.66;4973653;28;20033;-88
2023/04/18 10:17:03;;;;;;;;;;;;;;;14.07;88.43;99443.91;4972888;28;19914;-90
2023/04/18 10:19:29;;;;;;;;;;;;;;;13.97;89.22;99442.47;4973323;28;19921;-89
2023/04/18 10:21:55;;;;;;;;;;;;;;;13.94;89.55;99427.50;4973484;28;20415;-90
2023/04/18 10:24:38;;;;;;;;;;;;;;;13.71;91.60;99417.66;4972959;28;19921;-88
2023/04/18 10:27:04;;;;;;;;;;;;;;;13.73;90.44;99407.00;4972620;28;19999;-88
2023/04/18 10:29:49;;;;;;;;;;;;;;;13.72;91.47;99400.00;4973230;28;19961;-88
2023/04/18 10:32:18;;;;;;;;;;;;;;;13.83;93.74;99394.34;4972699;28;19918;-89
2023/04/18 10:34:45;;;;;;;;;;;;;;;14.03;93.93;99398.97;4972872;28;19921;-90
2023/04/18 10:37:11;;;;;;;;;;;;;;;14.20;93.45;99411.66;4971561;28;20341;-91
2023/04/18 10:39:47;;;;;;;;;;;;;;;14.40;91.96;99422.44;4955712;28;19918;-90
2023/04/18 10:42:12;;;;;;;;;;;;;;;14.51;87.98;99430.88;4972564;28;19914;-89
2023/04/18 10:44:38;;;;;;;;;;;;;;;14.50;87.71;99433.59;4972424;28;19921;-88
2023/04/18 10:47:07;;;;;;;;;;;;;;;14.74;85.94;99428.38;4972107;28;19914;-89
2023/04/18 10:49:34;;;;;;;;;;;;;;;14.48;86.62;99428.31;4970421;28;19925;-89
2023/04/18 10:52:01;;;;;;;;;;;;;;;14.55;86.37;99426.34;4972440;28;19914;-91
2023/04/18 10:54:45;;;;;;;;;;;;;;;14.62;86.74;99422.56;4972295;28;19914;-87
2023/04/18 10:57:11;;;;;;;;;;;;;;;14.61;85.70;99412.00;4972367;28;20041;-87
2023/04/18 10:59:37;;;;;;;;;;;;;;;14.70;85.77;99402.84;4972156;28;20408;-86
2023/04/18 11:02:21;;;;;;;;;;;;;;;14.79;85.34;99407.81;4971845;28;19914;-86
2023/04/18 11:04:54;;;;;;;;;;;;;;;14.78;83.33;99400.75;4972142;28;19956;-87
2023/04/18 11:07:30;;;;;;;;;;;;;;;14.86;82.37;99407.53;4986956;28;20006;-86
2023/04/18 11:09:56;;;;;;;;;;;;;;;14.78;82.99;99409.63;4972238;28;19918;-88
2023/04/18 11:12:21;;;;;;;;;;;;;;;14.82;84.64;99420.97;4972129;28;19914;-89
2023/04/18 11:14:53;;;;;;;;;;;;;;;14.97;84.32;99419.56;4987376;28;19921;-90
2023/04/18 11:17:19;;;;;;;;;;;;;;;14.65;86.32;99413.63;4983768;28;19953;-89
2023/04/18 11:19:45;;;;;;;;;;;;;;;14.45;87.57;99395.75;4952682;29;19914;-90
2023/04/18 11:22:11;;;;;;;;;;;;;;;14.48;86.28;99398.28;4952660;29;19933;-86
2023/04/18 11:24:36;;;;;;;;;;;;;;;14.61;87.17;99396.06;4954084;29;19914;-89
2023/04/18 11:27:07;;;;;;;;;;;;;;;14.85;86.55;99391.66;4973180;28;19914;-88
2023/04/18 11:29:32;;;;;;;;;;;;;;;14.77;85.69;99399.06;4956598;29;19983;-87
2023/04/18 11:31:57;;;;;;;;;;;;;;;14.91;85.28;99391.44;4952114;29;19920;-87
2023/04/18 11:34:27;;;;;;;;;;;;;;;14.71;82.77;99391.31;4953380;29;19965;-87
2023/04/18 11:36:52;;;;;;;;;;;;;;;14.98;80.56;99398.25;4951810;28;19987;-86
2023/04/18 11:39:17;;;;;;;;;;;;;;;15.14;79.29;99392.34;4951487;29;20043;-88
2023/04/18 11:41:49;;;;;;;;;;;;;;;15.36;79.22;99390.56;4952601;29;19954;-87
2023/04/18 11:44:14;;;;;;;;;;;;;;;15.58;77.72;99392.38;4952426;29;20016;-87
2023/04/18 11:46:40;;;;;;;;;;;;;;;15.40;78.25;99397.50;4951792;29;20392;-87
2023/04/18 11:49:06;;;;;;;;;;;;;;;15.38;77.68;99388.75;4951642;29;19915;-87
2023/04/18 11:51:37;;;;;;;;;;;;;;;15.40;77.86;99388.69;4951953;29;19973;-88
2023/04/18 11:54:02;;;;;;;;;;;;;;;15.26;80.80;99375.94;4957588;28;20372;-88
2023/04/18 11:56:28;;;;;;;;;;;;;;;15.41;79.70;99379.75;4971223;28;19918;-88
2023/04/18 11:58:53;;;;;;;;;;;;;;;15.40;78.75;99370.94;4961231;28;19914;-89
2023/04/18 12:01:20;;;;;;;;;;;;;;;15.04;79.01;99378.53;4952064;29;19914;-89
2023/04/18 12:04:04;;;;;;;;;;;;;;;15.07;80.03;99362.47;4964980;28;19914;-87
2023/04/18 12:06:45;;;;;;;;;;;;;;;15.40;80.72;99356.78;4969483;28;20072;-88
2023/04/18 12:09:17;;;;;;;;;;;;;;;15.52;78.48;99353.63;4970999;28;20008;-87
2023/04/18 12:11:43;;;;;;;;;;;;;;;15.50;78.30;99360.78;4971258;28;19937;-89
2023/04/18 12:14:18;;;;;;;;;;;;;;;15.51;77.34;99362.53;4971258;28;19918;-90
2023/04/18 12:16:43;;;;;;;;;;;;;;;15.74;75.67;99360.72;4970491;28;20008;-89
2023/04/18 12:19:10;;;;;;;;;;;;;;;15.46;76.97;99355.66;4970968;28;20444;-89
2023/04/18 12:21:35;;;;;;;;;;;;;;;15.55;76.02;99349.97;4971099;28;20004;-89
2023/04/18 12:24:11;;;;;;;;;;;;;;;15.37;74.71;99348.94;4970820;28;20293;-89
2023/04/18 12:26:43;;;;;;;;;;;;;;;15.57;74.75;99348.13;4971121;28;19914;-88
2023/04/18 12:29:10;;;;;;;;;;;;;;;15.53;75.94;99343.84;4971146;28;19949;-89
2023/04/18 12:31:35;;;;;;;;;;;;;;;15.57;75.19;99340.16;4971014;28;19913;-89
2023/04/18 12:34:01;;;;;;;;;;;;;;;15.60;76.34;99341.78;4970990;28;20398;-90
2023/04/18 12:36:27;;;;;;;;;;;;;;;15.65;75.54;99335.38;4971622;28;19914;-90
2023/04/18 12:38:52;;;;;;;;;;;;;;;15.65;73.24;99337.19;4971325;28;19914;-86